Skip to main content.
Station Historical Data
 
Daily Summary for January 17, 2020 Units:  Both    English   Metric
« Previous Day
Next Day »
Daily Weekly Monthly Yearly Custom
  Current: High: Low: Average:
Temperature: 23.9 °F /  -4.5 °C 24.1 °F /  -4.4 °C 16 °F /  -8.9 °C 20.3 °F /  -6.5 °C
Dew Point: 22.3 °F /  -5.4 °C 22.3 °F /  -5.4 °C 11.8 °F /  -11.2 °C 17.8 °F /  -7.9 °C
Humidity: 93% 93% 81% 90%
Wind Speed: 15.8mph /  25.4km/h 22.1mph /  35.6km/h - 13.3mph /  21.4km/h
Wind Gust: 19.6mph /  31.5km/h 28.8mph /  46.3km/h - -
WindSSE - - SE
Pressure: 30.3 in /  1026.5 hPa 30.6 in /  1036.8 hPa 30.3 in /  1026.5 hPa -
Precipitation: 0.03 in /  0.8 mm      
Historical Graphs
 
 
Tabular Data for January 17, 2020
Time Temperature Dew Point Pressure Wind Wind Speed Wind Gust Humidity Rainfall Rate (Hourly) solar Conditions
00:00 16 °F /  -8.9 °C 11.8 °F /  -11.2 °C 30.6in /  1036.8hPa SE 10.5mph /  16.9km/h 12.7mph /  20.4km/h 84% 0in /  0.0mm 0.00 W/m2 OVC
00:05 16 °F /  -8.9 °C 12.4 °F /  -10.9 °C 30.6in /  1036.6hPa SE 12.8mph /  20.6km/h 16.1mph /  25.9km/h 85% 0in /  0.0mm 0.00 W/m2 OVC
00:10 16.2 °F /  -8.8 °C 12.6 °F /  -10.8 °C 30.6in /  1036.8hPa SE 10.3mph /  16.6km/h 12.7mph /  20.4km/h 85% 0in /  0.0mm 0.00 W/m2 OVC
00:15 16.5 °F /  -8.6 °C 12.7 °F /  -10.7 °C 30.6in /  1036.6hPa SE 8.5mph /  13.7km/h 11.5mph /  18.5km/h 85% 0in /  0.0mm 0.00 W/m2 OVC
00:20 16.9 °F /  -8.4 °C 13.1 °F /  -10.5 °C 30.6in /  1036.4hPa SE 9.2mph /  14.8km/h 11.5mph /  18.5km/h 85% 0in /  0.0mm 0.00 W/m2 OVC
00:25 17.1 °F /  -8.3 °C 13.3 °F /  -10.4 °C 30.6in /  1036.3hPa SE 9.6mph /  15.4km/h 14mph /  22.5km/h 85% 0in /  0.0mm 0.00 W/m2 OVC
00:30 17.2 °F /  -8.2 °C 13.3 °F /  -10.4 °C 30.6in /  1036.3hPa SE 10.3mph /  16.6km/h 12.7mph /  20.4km/h 84% 0in /  0.0mm 0.00 W/m2 OVC
00:35 17.4 °F /  -8.1 °C 13.5 °F /  -10.3 °C 30.6in /  1036.2hPa SE 11.1mph /  17.9km/h 12.7mph /  20.4km/h 84% 0in /  0.0mm 0.00 W/m2 OVC
00:40 17.6 °F /  -8.0 °C 13.6 °F /  -10.2 °C 30.6in /  1036.2hPa SE 10.8mph /  17.4km/h 13.8mph /  22.2km/h 84% 0in /  0.0mm 0.00 W/m2 OVC
00:45 17.8 °F /  -7.9 °C 13.5 °F /  -10.3 °C 30.6in /  1035.9hPa SE 10.5mph /  16.9km/h 12.7mph /  20.4km/h 83% 0in /  0.0mm 0.00 W/m2 OVC
00:50 18.1 °F /  -7.7 °C 13.8 °F /  -10.1 °C 30.6in /  1035.7hPa ESE 10.1mph /  16.3km/h 12.7mph /  20.4km/h 83% 0in /  0.0mm 0.00 W/m2 OVC
00:55 18.3 °F /  -7.6 °C 14.2 °F /  -9.9 °C 30.6in /  1035.7hPa SE 11mph /  17.7km/h 15mph /  24.1km/h 83% 0in /  0.0mm 0.00 W/m2 OVC
01:00 18.7 °F /  -7.4 °C 14.2 °F /  -9.9 °C 30.6in /  1035.6hPa SE 9.8mph /  15.8km/h 12.7mph /  20.4km/h 82% 0in /  0.0mm 0.00 W/m2 OVC
01:05 19 °F /  -7.2 °C 14.4 °F /  -9.8 °C 30.6in /  1035.9hPa SSE 9.5mph /  15.3km/h 12.7mph /  20.4km/h 82% 0in /  0.0mm 0.00 W/m2 OVC
01:10 19.2 °F /  -7.1 °C 14.5 °F /  -9.7 °C 30.6in /  1035.8hPa SSE 10.2mph /  16.4km/h 11.5mph /  18.5km/h 82% 0in /  0.0mm 0.00 W/m2 OVC
01:15 19.2 °F /  -7.1 °C 14.7 °F /  -9.6 °C 30.6in /  1035.9hPa SSE 11.8mph /  19.0km/h 13.8mph /  22.2km/h 82% 0in /  0.0mm 0.00 W/m2 OVC
01:20 19.4 °F /  -7.0 °C 14.5 °F /  -9.7 °C 30.6in /  1035.7hPa SE 10.6mph /  17.1km/h 16.1mph /  25.9km/h 81% 0in /  0.0mm 0.00 W/m2 OVC
01:25 19.6 °F /  -6.9 °C 14.5 °F /  -9.7 °C 30.6in /  1035.5hPa SE 9.6mph /  15.4km/h 14mph /  22.5km/h 81% 0in /  0.0mm 0.00 W/m2 OVC
01:30 19.6 °F /  -6.9 °C 14.5 °F /  -9.7 °C 30.6in /  1035.7hPa SSE 12.3mph /  19.8km/h 16.1mph /  25.9km/h 81% 0in /  0.0mm 0.00 W/m2 OVC
01:35 19.6 °F /  -6.9 °C 15.1 °F /  -9.4 °C 30.6in /  1035.6hPa SE 10.4mph /  16.7km/h 13.8mph /  22.2km/h 82% 0in /  0.0mm 0.00 W/m2 OVC
01:40 19.6 °F /  -6.9 °C 14.9 °F /  -9.5 °C 30.6in /  1035.5hPa SE 8.7mph /  14.0km/h 12.7mph /  20.4km/h 82% 0in /  0.0mm 0.00 W/m2 OVC
01:45 19.6 °F /  -6.9 °C 15.3 °F /  -9.3 °C 30.6in /  1035.4hPa SSE 11.4mph /  18.3km/h 16.1mph /  25.9km/h 83% 0in /  0.0mm 0.00 W/m2 OVC
01:50 19.6 °F /  -6.9 °C 15.4 °F /  -9.2 °C 30.6in /  1035.6hPa SSE 11.1mph /  17.9km/h 14mph /  22.5km/h 84% 0in /  0.0mm 0.00 W/m2 OVC
01:55 19.6 °F /  -6.9 °C 15.6 °F /  -9.1 °C 30.6in /  1035.6hPa SE 11.3mph /  18.2km/h 13.8mph /  22.2km/h 85% 0in /  0.0mm 0.00 W/m2 OVC
02:00 19.4 °F /  -7.0 °C 16 °F /  -8.9 °C 30.6in /  1035.3hPa SSE 9.8mph /  15.8km/h 13.8mph /  22.2km/h 86% 0in /  0.0mm 0.00 W/m2 OVC
02:05 19.2 °F /  -7.1 °C 16 °F /  -8.9 °C 30.6in /  1035.2hPa SE 11.1mph /  17.9km/h 13.8mph /  22.2km/h 87% 0in /  0.0mm 0.00 W/m2 OVC
02:10 19 °F /  -7.2 °C 16.2 °F /  -8.8 °C 30.6in /  1035.2hPa SE 7.9mph /  12.7km/h 10.4mph /  16.7km/h 88% 0in /  0.0mm 0.00 W/m2 OVC
02:15 19 °F /  -7.2 °C 16.2 °F /  -8.8 °C 30.6in /  1035.2hPa SE 8.7mph /  14.0km/h 11.5mph /  18.5km/h 88% 0in /  0.0mm 0.00 W/m2 OVC
02:20 19.2 °F /  -7.1 °C 16.5 °F /  -8.6 °C 30.6in /  1035.1hPa SE 10mph /  16.1km/h 12.7mph /  20.4km/h 89% 0in /  0.0mm 0.00 W/m2 OVC
02:25 19.2 °F /  -7.1 °C 16.5 °F /  -8.6 °C 30.6in /  1034.9hPa SSE 10.5mph /  16.9km/h 13.8mph /  22.2km/h 89% 0in /  0.0mm 0.00 W/m2 OVC
02:30 19.2 °F /  -7.1 °C 16.9 °F /  -8.4 °C 30.6in /  1034.7hPa SE 10.3mph /  16.6km/h 12.7mph /  20.4km/h 90% 0in /  0.0mm 0.00 W/m2 OVC
02:35 19.2 °F /  -7.1 °C 16.9 °F /  -8.4 °C 30.6in /  1034.5hPa SE 10.1mph /  16.3km/h 13.8mph /  22.2km/h 90% 0in /  0.0mm 0.00 W/m2 OVC
02:40 19.2 °F /  -7.1 °C 16.7 °F /  -8.5 °C 30.6in /  1034.6hPa SE 10.8mph /  17.4km/h 12.7mph /  20.4km/h 90% 0in /  0.0mm 0.00 W/m2 OVC
02:45 19.2 °F /  -7.1 °C 16.7 °F /  -8.5 °C 30.6in /  1034.5hPa SE 10.9mph /  17.5km/h 13.8mph /  22.2km/h 90% 0in /  0.0mm 0.00 W/m2 OVC
02:50 19.2 °F /  -7.1 °C 17.1 °F /  -8.3 °C 30.6in /  1034.5hPa SE 9mph /  14.5km/h 9.2mph /  14.8km/h 91% 0in /  0.0mm 0.00 W/m2 OVC
02:55 19.2 °F /  -7.1 °C 17.1 °F /  -8.3 °C 30.5in /  1034.4hPa SE 11.4mph /  18.3km/h 15mph /  24.1km/h 91% 0in /  0.0mm 0.00 W/m2 OVC
03:00 19.2 °F /  -7.1 °C 17.1 °F /  -8.3 °C 30.5in /  1034.2hPa SE 11.4mph /  18.3km/h 13.8mph /  22.2km/h 91% 0in /  0.0mm 0.00 W/m2 OVC
03:05 19.4 °F /  -7.0 °C 17.2 °F /  -8.2 °C 30.5in /  1034.1hPa ESE 12mph /  19.3km/h 15mph /  24.1km/h 91% 0in /  0.0mm 0.00 W/m2 OVC
03:10 19.6 °F /  -6.9 °C 17.2 °F /  -8.2 °C 30.5in /  1033.9hPa ESE 12.9mph /  20.8km/h 15mph /  24.1km/h 91% 0in /  0.0mm 0.00 W/m2 OVC
03:15 19.6 °F /  -6.9 °C 17.4 °F /  -8.1 °C 30.5in /  1033.7hPa SE 12.2mph /  19.6km/h 15mph /  24.1km/h 91% 0in /  0.0mm 0.00 W/m2 OVC
03:20 19.8 °F /  -6.8 °C 17.4 °F /  -8.1 °C 30.5in /  1033.7hPa SE 11.5mph /  18.5km/h 13.8mph /  22.2km/h 91% 0.01in /  0.3mm 0.00 W/m2 RA
03:25 19.8 °F /  -6.8 °C 17.6 °F /  -8.0 °C 30.5in /  1033.5hPa ESE 11.1mph /  17.9km/h 15mph /  24.1km/h 91% 0.01in /  0.3mm 0.00 W/m2 RA
03:30 19.8 °F /  -6.8 °C 17.4 °F /  -8.1 °C 30.5in /  1033.5hPa ESE 13.8mph /  22.2km/h 17.3mph /  27.8km/h 91% 0.01in /  0.3mm 0.00 W/m2 RA
03:35 19.8 °F /  -6.8 °C 17.4 °F /  -8.1 °C 30.5in /  1033.5hPa SE 12.6mph /  20.3km/h 15mph /  24.1km/h 91% 0.01in /  0.3mm 0.00 W/m2
03:40 19.8 °F /  -6.8 °C 17.6 °F /  -8.0 °C 30.5in /  1033.4hPa SE 11.7mph /  18.8km/h 15mph /  24.1km/h 91% 0.01in /  0.3mm 0.00 W/m2 CLR
03:45 19.8 °F /  -6.8 °C 17.6 °F /  -8.0 °C 30.5in /  1033.3hPa ESE 12.3mph /  19.8km/h 15mph /  24.1km/h 91% 0.01in /  0.3mm 0.00 W/m2 CLR
03:50 19.8 °F /  -6.8 °C 17.6 °F /  -8.0 °C 30.5in /  1033.2hPa SE 11.9mph /  19.1km/h 13.8mph /  22.2km/h 91% 0.01in /  0.3mm 0.00 W/m2 CLR
03:55 19.9 °F /  -6.7 °C 18 °F /  -7.8 °C 30.5in /  1033.0hPa SE 11.1mph /  17.9km/h 15mph /  24.1km/h 92% 0.01in /  0.3mm 0.00 W/m2 CLR
04:00 19.9 °F /  -6.7 °C 18 °F /  -7.8 °C 30.5in /  1032.9hPa ESE 11.5mph /  18.5km/h 16.1mph /  25.9km/h 92% 0.01in /  0.3mm 0.00 W/m2 CLR
04:05 19.9 °F /  -6.7 °C 18.1 °F /  -7.7 °C 30.5in /  1032.7hPa SE 10.2mph /  16.4km/h 12.7mph /  20.4km/h 92% 0.01in /  0.3mm 0.00 W/m2 CLR
04:10 20.1 °F /  -6.6 °C 18.1 °F /  -7.7 °C 30.5in /  1032.6hPa SE 11.1mph /  17.9km/h 15mph /  24.1km/h 92% 0.01in /  0.3mm 0.00 W/m2 CLR
04:15 20.3 °F /  -6.5 °C 18.3 °F /  -7.6 °C 30.5in /  1032.4hPa ESE 11.4mph /  18.3km/h 15mph /  24.1km/h 92% 0.01in /  0.3mm 0.00 W/m2 CLR
04:20 20.5 °F /  -6.4 °C 18.3 °F /  -7.6 °C 30.5in /  1032.3hPa ESE 9.3mph /  15.0km/h 15mph /  24.1km/h 92% 0in /  0.0mm 0.00 W/m2 CLR
04:25 20.5 °F /  -6.4 °C 18.5 °F /  -7.5 °C 30.5in /  1032.1hPa ESE 11.8mph /  19.0km/h 16.1mph /  25.9km/h 92% 0in /  0.0mm 0.00 W/m2 CLR
04:30 20.7 °F /  -6.3 °C 18.7 °F /  -7.4 °C 30.5in /  1031.9hPa SE 11.4mph /  18.3km/h 15mph /  24.1km/h 92% 0in /  0.0mm 0.00 W/m2 CLR
04:35 20.7 °F /  -6.3 °C 18.7 °F /  -7.4 °C 30.5in /  1031.7hPa SE 14.1mph /  22.7km/h 17.3mph /  27.8km/h 92% 0in /  0.0mm 0.00 W/m2 CLR
04:40 20.7 °F /  -6.3 °C 18.7 °F /  -7.4 °C 30.5in /  1031.5hPa SE 13.7mph /  22.0km/h 16.1mph /  25.9km/h 92% 0in /  0.0mm 0.00 W/m2 CLR
04:45 20.8 °F /  -6.2 °C 18.9 °F /  -7.3 °C 30.5in /  1031.2hPa SE 12.2mph /  19.6km/h 15mph /  24.1km/h 92% 0.01in /  0.3mm 0.00 W/m2 RA
04:50 20.8 °F /  -6.2 °C 18.9 °F /  -7.3 °C 30.5in /  1031.3hPa SE 11.7mph /  18.8km/h 17mph /  27.4km/h 92% 0.01in /  0.3mm 0.00 W/m2 RA
04:55 21 °F /  -6.1 °C 19 °F /  -7.2 °C 30.5in /  1031.2hPa SE 11.2mph /  18.0km/h 14mph /  22.5km/h 92% 0.01in /  0.3mm 0.00 W/m2 RA
05:00 21 °F /  -6.1 °C 19 °F /  -7.2 °C 30.5in /  1031.1hPa SE 14.9mph /  24.0km/h 19.6mph /  31.5km/h 92% 0.01in /  0.3mm 0.00 W/m2
05:05 21.2 °F /  -6.0 °C 19.2 °F /  -7.1 °C 30.4in /  1031.0hPa SE 14.6mph /  23.5km/h 18.4mph /  29.6km/h 92% 0.01in /  0.3mm 0.00 W/m2 CLR
05:10 21.4 °F /  -5.9 °C 19.2 °F /  -7.1 °C 30.4in /  1030.9hPa SE 15.3mph /  24.6km/h 19.6mph /  31.5km/h 92% 0.01in /  0.3mm 0.00 W/m2 CLR
05:15 21.4 °F /  -5.9 °C 19.2 °F /  -7.1 °C 30.4in /  1030.6hPa SE 13.8mph /  22.2km/h 19.6mph /  31.5km/h 92% 0.01in /  0.3mm 0.00 W/m2 CLR
05:20 21.4 °F /  -5.9 °C 19.2 °F /  -7.1 °C 30.4in /  1030.5hPa SE 17.4mph /  28.0km/h 20.7mph /  33.3km/h 92% 0.01in /  0.3mm 0.00 W/m2 CLR
05:25 21.4 °F /  -5.9 °C 19.4 °F /  -7.0 °C 30.4in /  1030.2hPa SE 14.2mph /  22.8km/h 18.4mph /  29.6km/h 92% 0.01in /  0.3mm 0.00 W/m2 CLR
05:30 21.4 °F /  -5.9 °C 19.4 °F /  -7.0 °C 30.4in /  1030.0hPa SE 15mph /  24.1km/h 18.4mph /  29.6km/h 92% 0.01in /  0.3mm 0.00 W/m2 CLR
05:35 21.6 °F /  -5.8 °C 19.6 °F /  -6.9 °C 30.4in /  1029.8hPa SE 18.2mph /  29.3km/h 21.9mph /  35.2km/h 92% 0.01in /  0.3mm 0.00 W/m2 CLR
05:40 21.6 °F /  -5.8 °C 19.8 °F /  -6.8 °C 30.4in /  1029.4hPa SE 17.4mph /  28.0km/h 19.6mph /  31.5km/h 93% 0.01in /  0.3mm 0.00 W/m2 CLR
05:45 21.6 °F /  -5.8 °C 19.9 °F /  -6.7 °C 30.4in /  1029.2hPa ESE 15.9mph /  25.6km/h 23mph /  37.0km/h 93% 0in /  0.0mm 0.00 W/m2 CLR
05:50 21.6 °F /  -5.8 °C 19.9 °F /  -6.7 °C 30.4in /  1029.0hPa SE 17.4mph /  28.0km/h 23mph /  37.0km/h 93% 0in /  0.0mm 0.00 W/m2 CLR
05:55 21.7 °F /  -5.7 °C 19.9 °F /  -6.7 °C 30.4in /  1028.8hPa SE 16.4mph /  26.4km/h 21.9mph /  35.2km/h 93% 0in /  0.0mm 0.00 W/m2 CLR
06:00 21.7 °F /  -5.7 °C 19.9 °F /  -6.7 °C 30.4in /  1028.8hPa SE 17.8mph /  28.6km/h 23mph /  37.0km/h 93% 0in /  0.0mm 0.00 W/m2 CLR
06:05 21.9 °F /  -5.6 °C 20.1 °F /  -6.6 °C 30.4in /  1028.6hPa SE 19.1mph /  30.7km/h 24.2mph /  38.9km/h 93% 0in /  0.0mm 0.00 W/m2 CLR
06:10 22.1 °F /  -5.5 °C 20.5 °F /  -6.4 °C 30.4in /  1028.6hPa SE 16.8mph /  27.0km/h 23mph /  37.0km/h 93% 0in /  0.0mm 0.00 W/m2 CLR
06:15 22.3 °F /  -5.4 °C 20.5 °F /  -6.4 °C 30.4in /  1028.5hPa SE 17.9mph /  28.8km/h 23mph /  37.0km/h 93% 0in /  0.0mm 0.00 W/m2 CLR
06:20 22.5 °F /  -5.3 °C 20.7 °F /  -6.3 °C 30.4in /  1028.4hPa SE 18.9mph /  30.4km/h 25.3mph /  40.7km/h 93% 0in /  0.0mm 0.00 W/m2 CLR
06:25 22.6 °F /  -5.2 °C 20.8 °F /  -6.2 °C 30.4in /  1028.3hPa SE 17mph /  27.4km/h 20.7mph /  33.3km/h 93% 0in /  0.0mm 0.00 W/m2 CLR
06:30 22.6 °F /  -5.2 °C 21 °F /  -6.1 °C 30.4in /  1028.3hPa SE 22.1mph /  35.6km/h 25.3mph /  40.7km/h 93% 0in /  0.0mm 0.00 W/m2 CLR
06:35 22.8 °F /  -5.1 °C 21.2 °F /  -6.0 °C 30.4in /  1028.0hPa SE 16.3mph /  26.2km/h 25.3mph /  40.7km/h 93% 0in /  0.0mm 0.00 W/m2 CLR
06:40 23 °F /  -5.0 °C 21.4 °F /  -5.9 °C 30.4in /  1027.8hPa SE 21.3mph /  34.3km/h 28.8mph /  46.3km/h 93% 0in /  0.0mm 0.00 W/m2 CLR
06:45 23.2 °F /  -4.9 °C 21.4 °F /  -5.9 °C 30.4in /  1027.8hPa SSE 18mph /  29.0km/h 24.2mph /  38.9km/h 93% 0in /  0.0mm 0.00 W/m2 CLR
06:50 23.2 °F /  -4.9 °C 21.4 °F /  -5.9 °C 30.4in /  1027.8hPa SE 20mph /  32.2km/h 21.9mph /  35.2km/h 93% 0in /  0.0mm 0.00 W/m2 CLR
06:55 23.2 °F /  -4.9 °C 21.4 °F /  -5.9 °C 30.4in /  1027.7hPa SE 19.6mph /  31.5km/h 24.2mph /  38.9km/h 93% 0in /  0.0mm 0.00 W/m2 CLR
07:00 23.4 °F /  -4.8 °C 21.6 °F /  -5.8 °C 30.3in /  1027.6hPa SSE 21.5mph /  34.6km/h 26.5mph /  42.6km/h 93% 0in /  0.0mm 0.00 W/m2 CLR
07:05 23.4 °F /  -4.8 °C 21.6 °F /  -5.8 °C 30.3in /  1027.4hPa SE 19.5mph /  31.4km/h 25.3mph /  40.7km/h 93% 0in /  0.0mm 0.00 W/m2 CLR
07:10 23.4 °F /  -4.8 °C 21.6 °F /  -5.8 °C 30.3in /  1027.3hPa SE 17.5mph /  28.2km/h 23mph /  37.0km/h 93% 0in /  0.0mm 0.00 W/m2 CLR
07:15 23.4 °F /  -4.8 °C 21.6 °F /  -5.8 °C 30.3in /  1027.0hPa SSE 17.6mph /  28.3km/h 23mph /  37.0km/h 93% 0in /  0.0mm 0.00 W/m2 CLR
07:20 23.4 °F /  -4.8 °C 21.7 °F /  -5.7 °C 30.3in /  1027.0hPa SE 18.5mph /  29.8km/h 20.7mph /  33.3km/h 93% 0in /  0.0mm 0.00 W/m2 OVC
07:25 23.5 °F /  -4.7 °C 21.7 °F /  -5.7 °C 30.3in /  1026.8hPa SE 18.5mph /  29.8km/h 21.9mph /  35.2km/h 93% 0.01in /  0.3mm 0.00 W/m2 RA
07:30 23.5 °F /  -4.7 °C 21.7 °F /  -5.7 °C 30.3in /  1026.6hPa SE 16.1mph /  25.9km/h 21mph /  33.8km/h 93% 0.01in /  0.3mm 0.00 W/m2 RA
07:35 23.7 °F /  -4.6 °C 22.1 °F /  -5.5 °C 30.3in /  1026.5hPa SE 18.1mph /  29.1km/h 22mph /  35.4km/h 93% 0.01in /  0.3mm 0.00 W/m2 RA
07:40 24.1 °F /  -4.4 °C 22.3 °F /  -5.4 °C 30.3in /  1026.6hPa SE 16.8mph /  27.0km/h 20.7mph /  33.3km/h 93% 0.01in /  0.3mm 0.00 W/m2 OVC
07:45 23.9 °F /  -4.5 °C 22.3 °F /  -5.4 °C 30.3in /  1026.5hPa SSE 15.8mph /  25.4km/h 19.6mph /  31.5km/h 93% 0.01in /  0.3mm 0.00 W/m2 OVC
Friend Weather